Terminal Aerodrome Forecast
Issued by NWS

Home | Current Version | Previous Version | Text Only | Print | Product List | Glossary On
Versions: 1 2 3 4 5 6 7 8 9 10 11 12 13
000
FTUS43 KDTX 071726
TAFMBS
TAF
KMBS 071726Z 0718/0818 34012KT P6SM BKN015 BKN020
     FM072000 34012KT P6SM BKN020 BKN040
     FM072300 01006KT P6SM SKC
     FM081200 05007KT P6SM SCT030=

USA.gov is the U.S. government's official web portal to all federal, state and local government web resources and services.